createdAt,value
2023-02-11T00:01:16.593Z,53.07
2023-02-11T00:03:44.035Z,52.53
2023-02-11T00:06:11.875Z,52.17
2023-02-11T00:08:40.077Z,53.18
2023-02-11T00:11:07.823Z,53.64
2023-02-11T00:13:35.160Z,53.46
2023-02-11T00:16:07.598Z,53.57
2023-02-11T00:18:36.423Z,53.85
2023-02-11T00:21:09.656Z,53.99
2023-02-11T00:23:37.196Z,53.91
2023-02-11T00:26:11.328Z,53.21
2023-02-11T00:28:40.512Z,53.45
2023-02-11T00:31:12.272Z,53.59
2023-02-11T00:33:39.707Z,53.32
2023-02-11T00:36:09.846Z,52.66
2023-02-11T00:38:37.321Z,52.74
2023-02-11T00:41:05.039Z,53.70
2023-02-11T00:43:32.394Z,55.18
2023-02-11T00:45:59.849Z,55.90
2023-02-11T00:48:27.300Z,54.50
2023-02-11T00:50:54.711Z,55.65
2023-02-11T00:53:22.116Z,54.75
2023-02-11T00:55:49.682Z,56.05
2023-02-11T00:58:17.270Z,55.55
2023-02-11T01:00:44.822Z,55.73
2023-02-11T01:03:13.414Z,54.70
2023-02-11T01:05:40.827Z,56.16
2023-02-11T01:08:10.348Z,56.31
2023-02-11T01:10:37.862Z,55.37
2023-02-11T01:13:06.547Z,55.51
2023-02-11T01:15:33.996Z,55.41
2023-02-11T01:18:01.463Z,54.41
2023-02-11T01:20:29.671Z,55.40
2023-02-11T01:22:57.453Z,55.48
2023-02-11T01:25:24.834Z,55.07
2023-02-11T01:30:53.138Z,55.50
2023-02-11T01:33:20.905Z,55.54
2023-02-11T01:35:48.470Z,54.87
2023-02-11T01:38:25.017Z,54.89
2023-02-11T01:41:02.625Z,54.55
2023-02-11T01:43:36.802Z,54.67
2023-02-11T01:46:28.294Z,54.88
2023-02-11T01:49:08.481Z,55.26
2023-02-11T01:51:45.100Z,55.41
2023-02-11T01:54:35.498Z,55.56
2023-02-11T01:57:22.912Z,55.11
2023-02-11T02:00:01.309Z,55.49
2023-02-11T02:02:48.924Z,55.31
2023-02-11T02:05:23.551Z,55.37
2023-02-11T02:08:00.001Z,55.69
2023-02-11T02:10:31.346Z,56.19
2023-02-11T02:12:59.266Z,56.45
2023-02-11T02:15:36.407Z,57.77
2023-02-11T02:18:19.901Z,57.81
2023-02-11T02:20:56.369Z,57.48
2023-02-11T02:23:35.535Z,57.95
2023-02-11T02:26:24.755Z,57.49
2023-02-11T02:29:17.252Z,57.37
2023-02-11T02:31:50.601Z,57.03
2023-02-11T02:34:42.111Z,56.93
2023-02-11T02:37:18.290Z,57.75
2023-02-11T02:39:48.869Z,57.64
2023-02-11T02:42:18.494Z,58.54
2023-02-11T02:44:53.288Z,57.29
2023-02-11T02:47:39.447Z,59.19
2023-02-11T02:50:09.077Z,58.54
2023-02-11T02:52:53.071Z,58.16
2023-02-11T02:55:51.657Z,58.51
2023-02-11T02:58:34.960Z,58.28
2023-02-11T03:01:18.899Z,56.65
2023-02-11T03:04:14.549Z,57.38
2023-02-11T03:07:00.704Z,58.35
2023-02-11T03:09:49.602Z,58.13
2023-02-11T03:12:17.681Z,59.03
2023-02-11T03:14:46.675Z,58.47
2023-02-11T03:17:16.225Z,58.66
2023-02-11T03:19:46.454Z,59.19
2023-02-11T03:22:22.043Z,58.17
2023-02-11T03:24:49.772Z,59.34
2023-02-11T03:27:33.004Z,58.68
2023-02-11T03:30:16.643Z,59.07
2023-02-11T03:32:52.312Z,59.20
2023-02-11T03:35:43.682Z,59.66
2023-02-11T03:38:23.605Z,59.73
2023-02-11T03:40:51.968Z,60.05
2023-02-11T03:43:33.574Z,59.96
2023-02-11T03:46:02.261Z,59.59
2023-02-11T03:48:37.994Z,60.99
2023-02-11T03:51:09.748Z,61.54
2023-02-11T03:53:41.252Z,60.25
2023-02-11T03:56:11.133Z,60.70
2023-02-11T03:58:38.709Z,60.77
2023-02-11T04:01:08.961Z,60.89
2023-02-11T04:03:36.526Z,60.91
2023-02-11T04:06:04.188Z,60.83
2023-02-11T04:08:32.933Z,60.67
2023-02-11T04:11:00.304Z,60.26
2023-02-11T04:13:27.767Z,60.36
2023-02-11T04:15:55.146Z,60.65
2023-02-11T04:18:22.623Z,60.05
2023-02-11T04:20:51.052Z,60.33
2023-02-11T04:23:18.432Z,60.75
2023-02-11T04:25:45.920Z,61.41
2023-02-11T04:28:14.189Z,60.82
2023-02-11T04:30:41.537Z,60.85
2023-02-11T04:33:08.912Z,60.89
2023-02-11T04:35:36.327Z,62.13
2023-02-11T04:38:03.679Z,62.07
2023-02-11T04:40:31.217Z,60.57
2023-02-11T04:42:58.631Z,60.56
2023-02-11T04:45:26.043Z,61.35
2023-02-11T04:47:53.483Z,60.71
2023-02-11T04:50:20.952Z,61.25
2023-02-11T04:52:48.427Z,60.38
2023-02-11T04:55:15.887Z,60.83
2023-02-11T04:57:43.257Z,61.34
2023-02-11T05:00:11.099Z,60.37
2023-02-11T05:02:38.558Z,59.59
2023-02-11T05:05:06.085Z,60.09
2023-02-11T05:07:33.702Z,60.83
2023-02-11T05:10:01.115Z,62.13
2023-02-11T05:12:28.520Z,61.36
2023-02-11T05:14:55.907Z,61.09
2023-02-11T05:17:23.265Z,61.75
2023-02-11T05:19:50.711Z,62.67
2023-02-11T05:22:18.177Z,62.11
2023-02-11T05:24:45.611Z,62.01
2023-02-11T05:27:13.074Z,61.46
2023-02-11T05:29:40.448Z,61.80
2023-02-11T05:32:09.065Z,61.42
2023-02-11T05:34:36.716Z,61.67
2023-02-11T05:37:04.086Z,61.21
2023-02-11T05:39:31.454Z,61.50
2023-02-11T05:41:58.800Z,62.73
2023-02-11T05:44:26.084Z,61.81
2023-02-11T05:46:53.359Z,61.30
2023-02-11T05:49:20.689Z,61.54
2023-02-11T05:51:48.594Z,60.06
2023-02-11T05:54:16.778Z,58.54
2023-02-11T05:56:45.002Z,57.91
2023-02-11T05:59:14.622Z,57.40
2023-02-11T06:01:42.024Z,56.72
2023-02-11T06:04:09.493Z,57.15
2023-02-11T06:06:36.880Z,56.21
2023-02-11T06:09:04.294Z,57.01
2023-02-11T06:11:31.656Z,58.52
2023-02-11T06:13:58.996Z,57.67
2023-02-11T06:16:26.403Z,58.59
2023-02-11T06:18:53.758Z,60.10
2023-02-11T06:21:21.116Z,59.57
2023-02-11T06:23:49.209Z,59.44
2023-02-11T06:26:19.624Z,59.71
2023-02-11T06:28:47.068Z,59.39
2023-02-11T06:31:15.251Z,59.62
2023-02-11T06:33:42.622Z,59.24
2023-02-11T06:36:17.630Z,59.12
2023-02-11T06:38:46.002Z,58.73
2023-02-11T06:41:15.790Z,59.16
2023-02-11T06:43:43.687Z,58.58
2023-02-11T06:46:11.055Z,59.38
2023-02-11T06:48:38.654Z,59.21
2023-02-11T06:51:12.096Z,59.15
2023-02-11T06:53:42.212Z,59.88
2023-02-11T06:56:12.216Z,59.71
2023-02-11T06:58:39.712Z,59.63
2023-02-11T07:01:09.454Z,59.89
2023-02-11T07:03:38.394Z,60.46
2023-02-11T07:06:07.496Z,59.13
2023-02-11T07:08:36.336Z,59.14
2023-02-11T07:11:27.988Z,59.68
2023-02-11T07:13:56.824Z,60.24
2023-02-11T07:16:24.137Z,59.51
2023-02-11T07:18:51.592Z,59.92
2023-02-11T07:21:21.003Z,60.53
2023-02-11T07:23:48.873Z,60.64
2023-02-11T07:26:19.146Z,60.16
2023-02-11T07:28:48.855Z,60.01
2023-02-11T07:31:20.102Z,59.97
2023-02-11T07:33:47.622Z,60.58
2023-02-11T07:36:16.640Z,59.62
2023-02-11T07:38:44.587Z,59.71
2023-02-11T07:41:17.645Z,59.16
2023-02-11T07:43:45.580Z,59.25
2023-02-11T07:46:19.283Z,59.35
2023-02-11T07:48:47.355Z,58.61
2023-02-11T07:51:17.679Z,58.06
2023-02-11T07:53:46.020Z,57.98
2023-02-11T07:56:15.278Z,58.02
2023-02-11T07:58:43.631Z,58.24
2023-02-11T08:01:17.540Z,57.63
2023-02-11T08:03:45.556Z,57.22
2023-02-11T08:06:16.500Z,56.31
2023-02-11T08:08:44.151Z,56.79
2023-02-11T08:11:14.801Z,57.28
2023-02-11T08:13:42.492Z,56.65
2023-02-11T08:16:16.836Z,56.24
2023-02-11T08:18:44.236Z,56.21
2023-02-11T08:21:11.921Z,55.87
2023-02-11T08:23:40.962Z,55.26
2023-02-11T08:26:11.367Z,54.56
2023-02-11T08:29:15.921Z,52.05
2023-02-11T08:31:45.950Z,48.66
2023-02-11T08:34:14.486Z,46.40
2023-02-11T08:36:43.066Z,45.49
2023-02-11T08:39:20.741Z,44.94
2023-02-11T08:41:50.705Z,44.23
2023-02-11T08:44:21.708Z,43.19
2023-02-11T08:46:50.111Z,42.79
2023-02-11T08:49:17.854Z,42.74
2023-02-11T08:51:46.271Z,42.66
2023-02-11T08:54:14.343Z,42.28
2023-02-11T08:56:42.422Z,41.73
2023-02-11T08:59:13.872Z,41.61
2023-02-11T09:01:41.576Z,42.96
2023-02-11T09:04:10.498Z,43.35
2023-02-11T09:06:37.842Z,43.65
2023-02-11T09:09:05.636Z,42.54
2023-02-11T09:11:35.664Z,43.79
2023-02-11T09:14:04.563Z,44.45
2023-02-11T09:16:34.776Z,43.80
2023-02-11T09:19:04.017Z,44.49
2023-02-11T09:21:31.467Z,43.02
2023-02-11T09:23:58.827Z,42.23
2023-02-11T09:26:29.346Z,42.82
2023-02-11T09:29:07.732Z,42.83
2023-02-11T09:34:22.798Z,43.73
2023-02-11T09:36:50.316Z,42.99
2023-02-11T09:39:20.515Z,42.55
2023-02-11T09:41:55.617Z,42.82
2023-02-11T09:44:30.090Z,42.98
2023-02-11T09:47:01.008Z,43.24
2023-02-11T09:49:39.561Z,43.20
2023-02-11T09:52:30.810Z,43.05
2023-02-11T09:55:04.287Z,42.33
2023-02-11T09:57:35.044Z,42.81
2023-02-11T10:00:17.150Z,43.91
2023-02-11T10:03:04.512Z,43.30
2023-02-11T10:05:48.887Z,43.64
2023-02-11T10:08:42.713Z,43.47
2023-02-11T10:11:32.136Z,42.69
2023-02-11T10:14:36.980Z,41.91
2023-02-11T10:17:19.188Z,42.70
2023-02-11T10:20:03.230Z,42.71
2023-02-11T10:22:46.948Z,41.98
2023-02-11T10:25:20.102Z,41.73
2023-02-11T10:27:48.410Z,42.59
2023-02-11T10:30:22.122Z,42.82
2023-02-11T10:32:56.523Z,42.96
2023-02-11T10:35:24.821Z,42.59
2023-02-11T10:37:52.479Z,41.82
2023-02-11T10:40:23.885Z,41.94
2023-02-11T10:42:55.674Z,41.30
2023-02-11T10:45:33.284Z,41.16
2023-02-11T10:48:04.507Z,41.79
2023-02-11T10:50:35.040Z,42.55
2023-02-11T10:53:13.627Z,43.11
2023-02-11T10:55:50.414Z,42.82
2023-02-11T10:58:28.099Z,43.49
2023-02-11T11:00:57.413Z,43.83
2023-02-11T11:03:27.475Z,44.63
2023-02-11T11:06:02.009Z,45.19
2023-02-11T11:08:50.898Z,45.46
2023-02-11T11:11:23.925Z,45.39
2023-02-11T11:13:54.235Z,44.71
2023-02-11T11:16:36.306Z,43.33
2023-02-11T11:19:06.612Z,43.80
2023-02-11T11:21:42.761Z,43.44
2023-02-11T11:24:21.142Z,43.26
2023-02-11T11:26:55.025Z,42.31
2023-02-11T11:29:34.434Z,41.72
2023-02-11T11:32:24.067Z,41.09
2023-02-11T11:34:55.642Z,41.74
2023-02-11T11:37:27.161Z,40.54
2023-02-11T11:40:03.577Z,40.34
2023-02-11T11:42:33.463Z,40.16
2023-02-11T11:45:04.708Z,40.29
2023-02-11T11:47:56.359Z,39.85
2023-02-11T11:50:43.589Z,40.13
2023-02-11T11:53:31.891Z,40.68
2023-02-11T11:56:23.111Z,41.47
2023-02-11T11:58:50.962Z,41.53
2023-02-11T12:01:36.588Z,41.77
2023-02-11T12:04:25.719Z,41.96
2023-02-11T12:07:01.840Z,42.43
2023-02-11T12:09:48.296Z,42.60
2023-02-11T12:12:34.474Z,42.97
2023-02-11T12:15:19.308Z,43.30
2023-02-11T12:17:59.915Z,43.66
2023-02-11T12:20:27.406Z,45.20
2023-02-11T12:23:37.109Z,45.88
2023-02-11T12:26:19.540Z,46.62
2023-02-11T12:29:45.346Z,46.75
2023-02-11T12:32:33.929Z,47.13
2023-02-11T12:35:16.441Z,47.90
2023-02-11T12:38:21.824Z,48.05
2023-02-11T12:41:11.296Z,48.08
2023-02-11T12:43:41.017Z,49.05
2023-02-11T12:46:19.251Z,49.27
2023-02-11T12:49:14.333Z,49.31
2023-02-11T12:52:00.023Z,49.33
2023-02-11T12:54:35.569Z,49.34
2023-02-11T12:57:18.150Z,49.01
2023-02-11T13:00:12.708Z,48.12
2023-02-11T13:02:45.955Z,48.28
2023-02-11T13:05:29.510Z,47.85
2023-02-11T13:08:10.866Z,47.48
2023-02-11T13:10:41.585Z,45.81
2023-02-11T13:13:19.121Z,44.37
2023-02-11T13:16:09.783Z,44.00
2023-02-11T13:18:52.590Z,44.33
2023-02-11T13:21:31.319Z,44.37
2023-02-11T13:24:17.394Z,43.84
2023-02-11T13:27:12.475Z,43.95
2023-02-11T13:30:20.036Z,43.02
2023-02-11T13:32:54.782Z,43.01
2023-02-11T13:35:34.332Z,42.88
2023-02-11T13:38:05.104Z,42.76
2023-02-11T13:40:39.705Z,43.10
2023-02-11T13:43:21.143Z,42.68
2023-02-11T13:45:51.078Z,42.42
2023-02-11T13:48:31.083Z,41.04
2023-02-11T13:51:02.064Z,41.40
2023-02-11T13:53:29.910Z,40.73
2023-02-11T13:56:11.349Z,40.77
2023-02-11T13:58:49.890Z,39.82
2023-02-11T14:01:44.161Z,40.39
2023-02-11T14:04:44.404Z,40.03
2023-02-11T14:07:42.349Z,39.87
2023-02-11T14:10:38.883Z,39.72
2023-02-11T14:13:22.899Z,39.52
2023-02-11T14:16:06.087Z,39.26
2023-02-11T14:18:45.780Z,38.80
2023-02-11T14:21:17.507Z,37.09
2023-02-11T14:23:45.455Z,36.86
2023-02-11T14:26:21.721Z,35.89
2023-02-11T14:28:54.995Z,34.88
2023-02-11T14:31:28.983Z,34.73
2023-02-11T14:33:56.466Z,34.48
2023-02-11T14:36:46.269Z,34.19
2023-02-11T14:39:16.425Z,33.81
2023-02-11T14:41:48.169Z,34.17
2023-02-11T14:44:17.827Z,34.18
2023-02-11T14:46:47.486Z,34.34
2023-02-11T14:49:25.438Z,34.08
2023-02-11T14:51:56.677Z,34.71
2023-02-11T14:54:27.447Z,34.86
2023-02-11T14:57:14.151Z,35.48
2023-02-11T15:00:02.378Z,35.21
2023-02-11T15:02:37.161Z,35.02
2023-02-11T15:05:34.768Z,35.72
2023-02-11T15:08:05.079Z,35.97
2023-02-11T15:10:41.462Z,36.13
2023-02-11T15:13:16.431Z,36.26
2023-02-11T15:15:46.435Z,35.74
2023-02-11T15:18:22.761Z,35.84
2023-02-11T15:20:52.099Z,36.79
2023-02-11T15:23:25.071Z,36.84
2023-02-11T15:25:53.025Z,36.91
2023-02-11T15:28:38.723Z,37.14
2023-02-11T15:31:16.399Z,36.57
2023-02-11T15:33:43.873Z,36.60
2023-02-11T15:36:13.607Z,35.59
2023-02-11T15:38:41.108Z,35.88
2023-02-11T15:41:29.064Z,36.75
2023-02-11T15:43:56.384Z,37.02
2023-02-11T15:46:24.336Z,36.81
2023-02-11T15:48:53.954Z,36.99
2023-02-11T15:51:32.869Z,37.21
2023-02-11T15:54:05.864Z,36.85
2023-02-11T15:56:43.570Z,37.08
2023-02-11T15:59:27.446Z,37.14
2023-02-11T16:01:55.532Z,37.09
2023-02-11T16:04:25.930Z,37.52
2023-02-11T16:06:55.403Z,37.72
2023-02-11T16:09:33.710Z,37.90
2023-02-11T16:12:22.607Z,38.41
2023-02-11T16:14:50.008Z,38.27
2023-02-11T16:17:28.851Z,38.76
2023-02-11T16:19:56.335Z,39.15
2023-02-11T16:22:30.293Z,39.83
2023-02-11T16:24:59.752Z,40.60
2023-02-11T16:27:34.421Z,41.60
2023-02-11T16:30:02.156Z,41.49
2023-02-11T16:32:30.302Z,42.20
2023-02-11T16:35:00.829Z,42.68
2023-02-11T16:37:28.321Z,42.82
2023-02-11T16:39:57.009Z,43.07
2023-02-11T16:42:24.779Z,43.23
2023-02-11T16:44:52.249Z,43.82
2023-02-11T16:47:24.327Z,44.03
2023-02-11T16:49:52.424Z,44.16
2023-02-11T16:52:21.549Z,44.21
2023-02-11T16:54:49.107Z,44.32
2023-02-11T16:57:24.956Z,44.31
2023-02-11T16:59:52.949Z,44.41
2023-02-11T17:02:25.285Z,44.42
2023-02-11T17:04:54.712Z,44.37
2023-02-11T17:07:22.478Z,44.27
2023-02-11T17:09:50.209Z,44.57
2023-02-11T17:12:18.022Z,44.95
2023-02-11T17:14:45.451Z,45.36
2023-02-11T17:17:13.095Z,45.49
2023-02-11T17:19:40.409Z,45.33
2023-02-11T17:22:07.845Z,45.67
2023-02-11T17:24:35.321Z,45.71
2023-02-11T17:27:02.769Z,45.91
2023-02-11T17:29:30.072Z,46.15
2023-02-11T17:31:57.456Z,46.33
2023-02-11T17:34:24.881Z,46.70
2023-02-11T17:36:52.176Z,46.72
2023-02-11T17:39:21.090Z,46.91
2023-02-11T17:41:48.727Z,46.82
2023-02-11T17:44:16.733Z,46.88
2023-02-11T17:46:44.348Z,46.91
2023-02-11T17:49:12.186Z,47.45
2023-02-11T17:51:40.250Z,47.46
2023-02-11T17:54:12.435Z,47.75
2023-02-11T17:56:40.456Z,47.96
2023-02-11T17:59:09.314Z,47.63
2023-02-11T18:01:40.268Z,47.61
2023-02-11T18:04:13.575Z,47.63
2023-02-11T18:06:41.330Z,47.83
2023-02-11T18:09:09.845Z,47.73
2023-02-11T18:11:39.344Z,47.28
2023-02-11T18:14:08.508Z,47.88
2023-02-11T18:16:39.075Z,47.54
2023-02-11T18:19:08.063Z,47.60
2023-02-11T18:21:36.016Z,47.24
2023-02-11T18:24:06.814Z,47.29
2023-02-11T18:26:35.666Z,47.64
2023-02-11T18:29:03.920Z,47.38
2023-02-11T18:31:31.566Z,47.25
2023-02-11T18:33:59.013Z,47.44
2023-02-11T18:36:29.430Z,47.41
2023-02-11T18:39:01.550Z,48.07
2023-02-11T18:41:29.820Z,47.79
2023-02-11T18:43:58.678Z,47.85
2023-02-11T18:46:26.095Z,48.07
2023-02-11T18:48:55.994Z,47.91
2023-02-11T18:51:24.343Z,47.57
2023-02-11T18:53:52.176Z,47.57
2023-02-11T18:56:22.810Z,47.41
2023-02-11T18:58:51.417Z,48.33
2023-02-11T19:01:24.216Z,48.18
2023-02-11T19:03:51.949Z,48.46
2023-02-11T19:06:22.444Z,48.37
2023-02-11T19:08:53.353Z,48.62
2023-02-11T19:11:42.185Z,48.55
2023-02-11T19:14:30.336Z,48.77
2023-02-11T19:16:59.986Z,49.13
2023-02-11T19:19:30.550Z,49.08
2023-02-11T19:21:59.559Z,49.14
2023-02-11T19:24:27.897Z,49.22
2023-02-11T19:27:01.020Z,49.35
2023-02-11T19:29:32.195Z,49.51
2023-02-11T19:32:10.406Z,49.88
2023-02-11T19:34:41.326Z,50.25
2023-02-11T19:37:12.161Z,50.45
2023-02-11T19:39:40.766Z,50.92
2023-02-11T19:42:08.878Z,50.95
2023-02-11T19:44:41.696Z,51.66
2023-02-11T19:47:10.547Z,51.85
2023-02-11T19:49:38.239Z,51.56
2023-02-11T19:52:05.594Z,51.63
2023-02-11T19:54:44.313Z,51.64
2023-02-11T19:57:12.219Z,52.23
2023-02-11T19:59:42.587Z,52.27
2023-02-11T20:02:12.316Z,52.39
2023-02-11T20:04:39.896Z,52.84
2023-02-11T20:07:11.743Z,52.42
2023-02-11T20:09:40.958Z,52.36
2023-02-11T20:12:08.952Z,52.48
2023-02-11T20:14:36.795Z,52.59
2023-02-11T20:17:04.377Z,52.59
2023-02-11T20:19:31.994Z,52.24
2023-02-11T20:21:59.720Z,52.90
2023-02-11T20:24:33.878Z,53.48
2023-02-11T20:27:01.780Z,53.38
2023-02-11T20:29:31.259Z,53.36
2023-02-11T20:31:58.813Z,53.77
2023-02-11T20:34:26.235Z,53.46
2023-02-11T20:36:54.171Z,53.90
2023-02-11T20:39:23.518Z,54.75
2023-02-11T20:41:52.412Z,55.04
2023-02-11T20:44:24.008Z,55.08
2023-02-11T20:46:53.883Z,55.17
2023-02-11T20:49:23.961Z,55.32
2023-02-11T20:51:53.612Z,55.79
2023-02-11T20:54:23.254Z,56.01
2023-02-11T20:56:51.429Z,56.35
2023-02-11T20:59:19.297Z,56.67
2023-02-11T21:01:50.218Z,56.35
2023-02-11T21:04:21.220Z,56.30
2023-02-11T21:06:52.279Z,56.55
2023-02-11T21:09:22.833Z,56.74
2023-02-11T21:11:51.709Z,56.92
2023-02-11T21:14:20.846Z,57.10
2023-02-11T21:16:49.200Z,57.71
2023-02-11T21:19:17.885Z,57.06
2023-02-11T21:21:45.864Z,57.37
2023-02-11T21:24:13.941Z,57.55
2023-02-11T21:26:41.716Z,57.97
2023-02-11T21:29:09.548Z,58.26
2023-02-11T21:31:45.769Z,58.39
2023-02-11T21:34:13.211Z,58.49
2023-02-11T21:36:45.587Z,57.78
2023-02-11T21:39:20.436Z,58.21
2023-02-11T21:41:53.366Z,58.78
2023-02-11T21:44:21.708Z,58.36
2023-02-11T21:46:55.013Z,58.94
2023-02-11T21:49:22.779Z,59.04
2023-02-11T21:51:52.315Z,58.93
2023-02-11T21:54:25.897Z,59.65
2023-02-11T21:57:00.846Z,59.70
2023-02-11T21:59:42.683Z,59.77
2023-02-11T22:02:15.558Z,59.66
2023-02-11T22:04:46.703Z,59.71
2023-02-11T22:07:17.118Z,59.77
2023-02-11T22:09:48.734Z,59.67
2023-02-11T22:12:18.365Z,59.85
2023-02-11T22:14:50.981Z,59.69
2023-02-11T22:17:25.382Z,59.82
2023-02-11T22:19:58.482Z,60.47
2023-02-11T22:22:33.022Z,60.65
2023-02-11T22:25:04.224Z,61.15
2023-02-11T22:27:31.722Z,60.81
2023-02-11T22:30:09.878Z,60.77
2023-02-11T22:32:42.650Z,60.44
2023-02-11T22:35:10.704Z,60.60
2023-02-11T22:37:39.373Z,61.00
2023-02-11T22:40:07.634Z,60.83
2023-02-11T22:42:35.506Z,61.27
2023-02-11T22:45:03.223Z,61.18
2023-02-11T22:47:31.018Z,61.24
2023-02-11T22:49:59.315Z,61.53
2023-02-11T22:52:28.433Z,61.41
2023-02-11T22:54:56.169Z,61.60
2023-02-11T22:57:23.660Z,62.17
2023-02-11T22:59:51.141Z,61.51
2023-02-11T23:02:18.664Z,61.07
2023-02-11T23:04:49.617Z,61.44
2023-02-11T23:07:17.519Z,61.53
2023-02-11T23:09:45.354Z,61.64
2023-02-11T23:12:13.563Z,61.12
2023-02-11T23:14:42.686Z,62.24
2023-02-11T23:17:21.788Z,62.22
2023-02-11T23:19:49.149Z,62.17
2023-02-11T23:22:16.607Z,62.22
2023-02-11T23:24:44.791Z,62.99
2023-02-11T23:27:12.439Z,62.61
2023-02-11T23:29:40.764Z,63.18
2023-02-11T23:32:11.138Z,63.28
2023-02-11T23:34:38.773Z,62.57
2023-02-11T23:37:06.604Z,63.03
2023-02-11T23:39:34.140Z,61.95
2023-02-11T23:42:01.998Z,60.64
2023-02-11T23:44:30.194Z,61.66
2023-02-11T23:46:58.425Z,62.34
2023-02-11T23:49:44.486Z,63.09
2023-02-11T23:52:12.145Z,62.85
2023-02-11T23:54:39.792Z,62.61
2023-02-11T23:57:07.897Z,61.62
2023-02-11T23:59:35.620Z,61.98
